createdAt,value
2023-02-26T00:00:21.273Z,1.13
2023-02-26T00:02:49.353Z,0.95
2023-02-26T00:05:18.366Z,1.14
2023-02-26T00:07:46.047Z,1.45
2023-02-26T00:10:15.767Z,1.19
2023-02-26T00:12:44.422Z,0.83
2023-02-26T00:15:14.978Z,1.08
2023-02-26T00:17:50.003Z,0.82
2023-02-26T00:20:20.207Z,0.83
2023-02-26T00:22:48.275Z,0.72
2023-02-26T00:25:15.802Z,0.88
2023-02-26T00:27:48.000Z,0.73
2023-02-26T00:30:20.069Z,0.72
2023-02-26T00:32:48.059Z,1.12
2023-02-26T00:35:17.037Z,0.88
2023-02-26T00:38:06.882Z,0.71
2023-02-26T00:40:42.138Z,0.66
2023-02-26T00:43:14.795Z,0.85
2023-02-26T00:45:48.047Z,1.00
2023-02-26T00:48:34.913Z,0.58
2023-02-26T00:51:11.033Z,0.71
2023-02-26T00:53:48.682Z,0.89
2023-02-26T00:56:16.317Z,0.72
2023-02-26T00:58:44.499Z,0.73
2023-02-26T01:01:12.225Z,0.82
2023-02-26T01:03:40.280Z,0.88
2023-02-26T01:06:12.156Z,0.70
2023-02-26T01:08:48.733Z,1.06
2023-02-26T01:11:16.667Z,1.04
2023-02-26T01:13:44.447Z,0.94
2023-02-26T01:16:18.715Z,0.80
2023-02-26T01:18:51.602Z,1.29
2023-02-26T01:21:25.376Z,1.13
2023-02-26T01:23:54.366Z,1.25
2023-02-26T01:26:26.509Z,1.13
2023-02-26T01:28:55.198Z,0.86
2023-02-26T01:31:35.660Z,1.23
2023-02-26T01:34:09.500Z,1.21
2023-02-26T01:36:43.732Z,1.08
2023-02-26T01:39:20.627Z,1.51
2023-02-26T01:41:51.497Z,1.21
2023-02-26T01:44:27.387Z,1.15
2023-02-26T01:47:11.719Z,1.22
2023-02-26T01:49:39.781Z,1.28
2023-02-26T01:52:08.427Z,1.17
2023-02-26T01:54:39.137Z,1.03
2023-02-26T01:57:11.745Z,1.01
2023-02-26T01:59:43.131Z,0.91
2023-02-26T02:02:12.914Z,1.46
2023-02-26T02:04:42.033Z,1.30
2023-02-26T02:07:09.779Z,1.23
2023-02-26T02:09:38.597Z,1.33
2023-02-26T02:12:20.941Z,1.21
2023-02-26T02:15:03.436Z,1.25
2023-02-26T02:17:39.438Z,1.09
2023-02-26T02:20:37.656Z,1.23
2023-02-26T02:23:15.522Z,1.28
2023-02-26T02:26:16.337Z,1.48
2023-02-26T02:29:02.479Z,1.21
2023-02-26T02:31:36.675Z,1.32
2023-02-26T02:34:08.890Z,0.90
2023-02-26T02:36:42.479Z,1.22
2023-02-26T02:39:13.325Z,1.16
2023-02-26T02:41:47.215Z,1.04
2023-02-26T02:44:19.265Z,1.10
2023-02-26T02:46:52.762Z,1.51
2023-02-26T02:49:25.086Z,1.28
2023-02-26T02:51:56.194Z,1.04
2023-02-26T02:54:27.033Z,1.25
2023-02-26T02:56:57.430Z,1.32
2023-02-26T02:59:30.478Z,0.94
2023-02-26T03:02:06.362Z,1.71
2023-02-26T03:04:33.969Z,1.61
2023-02-26T03:07:01.437Z,1.21
2023-02-26T03:09:28.966Z,0.93
2023-02-26T03:11:56.390Z,0.86
2023-02-26T03:14:24.482Z,1.14
2023-02-26T03:17:10.155Z,1.16
2023-02-26T03:19:45.605Z,0.95
2023-02-26T03:22:18.119Z,1.08
2023-02-26T03:24:50.877Z,0.79
2023-02-26T03:27:24.855Z,0.74
2023-02-26T03:29:57.080Z,1.18
2023-02-26T03:32:30.941Z,0.91
2023-02-26T03:35:05.702Z,1.22
2023-02-26T03:37:37.427Z,0.92
2023-02-26T03:40:10.999Z,0.81
2023-02-26T03:42:43.884Z,0.77
2023-02-26T03:45:14.386Z,0.93
2023-02-26T03:47:48.438Z,0.76
2023-02-26T03:50:18.817Z,1.20
2023-02-26T03:52:49.812Z,0.98
2023-02-26T03:55:23.161Z,0.89
2023-02-26T03:57:50.865Z,0.76
2023-02-26T04:00:19.865Z,0.69
2023-02-26T04:03:00.157Z,1.18
2023-02-26T04:05:30.164Z,0.93
2023-02-26T04:07:58.870Z,0.57
2023-02-26T04:10:30.620Z,0.64
2023-02-26T04:13:00.149Z,0.68
2023-02-26T04:15:27.667Z,0.69
2023-02-26T04:17:56.592Z,0.86
2023-02-26T04:20:24.089Z,0.62
2023-02-26T04:22:51.926Z,0.68
2023-02-26T04:25:19.602Z,0.83
2023-02-26T04:27:47.084Z,0.93
2023-02-26T04:30:14.663Z,0.72
2023-02-26T04:32:42.214Z,1.09
2023-02-26T04:35:11.167Z,0.71
2023-02-26T04:37:38.721Z,0.71
2023-02-26T04:40:07.613Z,0.55
2023-02-26T04:42:35.130Z,0.71
2023-02-26T04:45:02.665Z,1.04
2023-02-26T04:47:30.127Z,0.96
2023-02-26T04:49:57.619Z,0.71
2023-02-26T04:52:26.695Z,0.90
2023-02-26T04:54:54.228Z,0.96
2023-02-26T04:57:22.143Z,0.94
2023-02-26T04:59:49.621Z,1.20
2023-02-26T05:02:17.045Z,0.88
2023-02-26T05:04:44.503Z,1.16
2023-02-26T05:07:11.959Z,1.06
2023-02-26T05:09:40.715Z,0.90
2023-02-26T05:12:08.121Z,1.14
2023-02-26T05:14:35.576Z,1.08
2023-02-26T05:17:03.022Z,1.09
2023-02-26T05:19:30.480Z,1.22
2023-02-26T05:21:57.925Z,1.14
2023-02-26T05:24:25.372Z,1.18
2023-02-26T05:26:54.436Z,0.99
2023-02-26T05:29:21.864Z,0.84
2023-02-26T05:31:49.352Z,1.19
2023-02-26T05:34:16.812Z,1.09
2023-02-26T05:36:44.260Z,1.24
2023-02-26T05:39:11.808Z,1.34
2023-02-26T05:41:39.306Z,1.31
2023-02-26T05:44:09.191Z,1.23
2023-02-26T05:46:36.771Z,1.06
2023-02-26T05:49:04.217Z,1.24
2023-02-26T05:51:31.725Z,1.32
2023-02-26T05:53:59.137Z,1.28
2023-02-26T05:56:26.741Z,1.28
2023-02-26T05:58:54.312Z,1.24
2023-02-26T06:01:23.198Z,1.55
2023-02-26T06:03:50.607Z,1.78
2023-02-26T06:06:18.555Z,1.93
2023-02-26T06:08:46.164Z,1.82
2023-02-26T06:11:13.685Z,1.42
2023-02-26T06:13:41.514Z,1.30
2023-02-26T06:16:09.062Z,1.56
2023-02-26T06:18:37.879Z,1.26
2023-02-26T06:21:06.026Z,1.23
2023-02-26T06:23:33.456Z,1.20
2023-02-26T06:26:00.892Z,1.50
2023-02-26T06:28:28.417Z,1.71
2023-02-26T06:30:56.373Z,1.17
2023-02-26T06:33:24.186Z,1.25
2023-02-26T06:35:53.275Z,1.31
2023-02-26T06:38:20.838Z,1.90
2023-02-26T06:40:48.913Z,1.64
2023-02-26T06:43:16.340Z,1.18
2023-02-26T06:45:43.814Z,1.23
2023-02-26T06:48:11.264Z,1.28
2023-02-26T06:50:39.508Z,1.91
2023-02-26T06:53:08.301Z,1.83
2023-02-26T06:55:36.409Z,1.65
2023-02-26T06:58:03.939Z,1.64
2023-02-26T07:00:31.452Z,1.55
2023-02-26T07:02:59.249Z,1.34
2023-02-26T07:05:26.778Z,1.69
2023-02-26T07:07:54.219Z,1.68
2023-02-26T07:10:24.994Z,2.11
2023-02-26T07:12:52.726Z,2.31
2023-02-26T07:15:20.204Z,1.74
2023-02-26T07:17:47.652Z,1.27
2023-02-26T07:20:15.172Z,1.60
2023-02-26T07:22:42.750Z,2.31
2023-02-26T07:25:11.323Z,1.96
2023-02-26T07:27:43.384Z,1.77
2023-02-26T07:30:14.012Z,1.61
2023-02-26T07:32:41.530Z,1.80
2023-02-26T07:35:09.764Z,1.37
2023-02-26T07:37:37.223Z,1.25
2023-02-26T07:40:05.466Z,1.93
2023-02-26T07:42:32.933Z,1.67
2023-02-26T07:45:02.376Z,1.32
2023-02-26T07:47:30.499Z,1.34
2023-02-26T07:49:58.377Z,1.48
2023-02-26T07:52:26.070Z,1.39
2023-02-26T07:54:53.654Z,1.35
2023-02-26T07:57:21.439Z,1.25
2023-02-26T07:59:48.911Z,1.34
2023-02-26T08:02:17.993Z,1.53
2023-02-26T08:04:45.441Z,1.39
2023-02-26T08:07:12.878Z,1.73
2023-02-26T08:09:40.301Z,1.84
2023-02-26T08:12:07.809Z,1.76
2023-02-26T08:14:35.409Z,2.29
2023-02-26T08:17:02.854Z,1.86
2023-02-26T08:19:32.525Z,1.67
2023-02-26T08:21:59.931Z,1.57
2023-02-26T08:24:27.457Z,1.49
2023-02-26T08:26:55.010Z,1.64
2023-02-26T08:29:22.635Z,2.09
2023-02-26T08:31:50.397Z,1.58
2023-02-26T08:34:18.485Z,1.48
2023-02-26T08:36:47.254Z,2.01
2023-02-26T08:39:14.796Z,1.92
2023-02-26T08:41:42.304Z,1.70
2023-02-26T08:44:10.016Z,1.56
2023-02-26T08:46:38.604Z,1.60
2023-02-26T08:49:06.218Z,1.79
2023-02-26T08:51:33.775Z,2.31
2023-02-26T08:54:02.585Z,2.40
2023-02-26T08:56:30.046Z,1.92
2023-02-26T08:58:57.464Z,1.98
2023-02-26T09:01:25.430Z,1.94
2023-02-26T09:03:53.099Z,2.01
2023-02-26T09:06:20.597Z,1.94
2023-02-26T09:08:49.362Z,1.98
2023-02-26T09:11:18.171Z,2.17
2023-02-26T09:13:45.614Z,1.90
2023-02-26T09:16:13.219Z,2.03
2023-02-26T09:18:40.639Z,3.94
2023-02-26T09:21:08.107Z,6.57
2023-02-26T09:23:35.557Z,4.60
2023-02-26T09:26:03.073Z,2.53
2023-02-26T09:28:31.978Z,2.59
2023-02-26T09:30:59.571Z,3.23
2023-02-26T09:33:27.155Z,2.45
2023-02-26T09:35:54.646Z,2.39
2023-02-26T09:38:22.105Z,2.41
2023-02-26T09:40:52.159Z,2.04
2023-02-26T09:43:50.786Z,2.10
2023-02-26T09:46:31.552Z,1.99
2023-02-26T09:49:08.254Z,2.24
2023-02-26T09:51:36.943Z,2.32
2023-02-26T09:54:14.916Z,2.40
2023-02-26T09:56:42.873Z,2.49
2023-02-26T09:59:12.027Z,2.61
2023-02-26T10:01:46.710Z,3.09
2023-02-26T10:04:26.661Z,2.86
2023-02-26T10:07:08.575Z,2.72
2023-02-26T10:09:51.209Z,2.43
2023-02-26T10:12:21.085Z,2.71
2023-02-26T10:15:01.088Z,2.77
2023-02-26T10:17:34.787Z,2.64
2023-02-26T10:20:07.171Z,2.79
2023-02-26T10:22:38.653Z,2.72
2023-02-26T10:25:13.277Z,2.47
2023-02-26T10:27:54.364Z,2.88
2023-02-26T10:30:31.333Z,2.88
2023-02-26T10:33:07.888Z,2.66
2023-02-26T10:35:43.143Z,2.78
2023-02-26T10:38:14.792Z,2.90
2023-02-26T10:40:45.672Z,3.25
2023-02-26T10:43:19.452Z,2.94
2023-02-26T10:46:00.004Z,3.17
2023-02-26T10:48:42.221Z,3.42
2023-02-26T10:51:15.210Z,3.16
2023-02-26T10:53:47.143Z,3.07
2023-02-26T10:56:19.011Z,3.46
2023-02-26T10:58:47.003Z,3.50
2023-02-26T11:01:19.228Z,3.49
2023-02-26T11:03:51.600Z,3.37
2023-02-26T11:06:22.933Z,2.91
2023-02-26T11:08:54.081Z,2.94
2023-02-26T11:11:40.360Z,3.36
2023-02-26T11:14:08.772Z,3.59
2023-02-26T11:16:43.575Z,3.67
2023-02-26T11:19:15.289Z,4.29
2023-02-26T11:21:46.119Z,4.13
2023-02-26T11:24:19.383Z,3.13
2023-02-26T11:26:49.700Z,2.90
2023-02-26T11:29:20.388Z,3.12
2023-02-26T11:31:52.203Z,3.11
2023-02-26T11:34:23.694Z,3.28
2023-02-26T11:36:53.409Z,3.26
2023-02-26T11:39:24.747Z,3.47
2023-02-26T11:41:56.874Z,3.23
2023-02-26T11:44:35.969Z,3.25
2023-02-26T11:47:07.944Z,3.57
2023-02-26T11:49:35.525Z,3.97
2023-02-26T11:52:17.690Z,4.03
2023-02-26T11:54:47.075Z,4.20
2023-02-26T11:57:18.294Z,4.27
2023-02-26T11:59:50.135Z,3.89
2023-02-26T12:02:21.222Z,3.80
2023-02-26T12:04:50.870Z,3.49
2023-02-26T12:07:19.926Z,3.28
2023-02-26T12:09:48.406Z,3.00
2023-02-26T12:12:35.861Z,3.34
2023-02-26T12:15:18.610Z,3.43
2023-02-26T12:18:04.027Z,3.67
2023-02-26T12:20:38.329Z,4.46
2023-02-26T12:23:31.220Z,4.41
2023-02-26T12:26:13.537Z,4.38
2023-02-26T12:29:07.152Z,3.47
2023-02-26T12:32:02.821Z,3.42
2023-02-26T12:34:55.333Z,3.41
2023-02-26T12:37:36.533Z,3.18
2023-02-26T12:40:20.725Z,3.53
2023-02-26T12:43:00.088Z,3.51
2023-02-26T12:45:42.154Z,3.80
2023-02-26T12:48:37.151Z,3.51
2023-02-26T12:51:14.532Z,3.78
2023-02-26T12:53:54.943Z,3.90
2023-02-26T12:56:49.953Z,4.70
2023-02-26T12:59:35.266Z,4.54
2023-02-26T13:02:29.490Z,5.66
2023-02-26T13:05:30.611Z,4.77
2023-02-26T13:08:13.024Z,3.99
2023-02-26T13:10:55.770Z,3.73
2023-02-26T13:13:38.873Z,3.65
2023-02-26T13:16:18.755Z,3.55
2023-02-26T13:18:54.838Z,3.47
2023-02-26T13:21:27.338Z,3.82
2023-02-26T13:24:00.522Z,3.88
2023-02-26T13:26:30.134Z,3.52
2023-02-26T13:29:01.617Z,3.85
2023-02-26T13:31:33.885Z,4.04
2023-02-26T13:34:10.736Z,3.59
2023-02-26T13:36:39.645Z,3.63
2023-02-26T13:39:29.067Z,3.97
2023-02-26T13:42:02.303Z,3.80
2023-02-26T13:44:38.247Z,3.70
2023-02-26T13:47:25.904Z,4.14
2023-02-26T13:50:05.989Z,3.90
2023-02-26T13:52:36.886Z,4.07
2023-02-26T13:55:06.771Z,4.08
2023-02-26T13:57:48.704Z,3.96
2023-02-26T14:00:28.138Z,3.39
2023-02-26T14:02:57.561Z,3.37
2023-02-26T14:05:53.944Z,3.47
2023-02-26T14:08:46.927Z,3.51
2023-02-26T14:11:44.746Z,3.60
2023-02-26T14:14:24.335Z,3.75
2023-02-26T14:16:56.032Z,4.08
2023-02-26T14:19:34.273Z,4.45
2023-02-26T14:22:15.031Z,4.42
2023-02-26T14:24:51.733Z,4.11
2023-02-26T14:27:33.471Z,4.54
2023-02-26T14:30:06.928Z,4.13
2023-02-26T14:32:36.082Z,4.41
2023-02-26T14:35:11.209Z,3.91
2023-02-26T14:37:41.828Z,3.94
2023-02-26T14:40:16.011Z,3.66
2023-02-26T14:42:49.763Z,3.66
2023-02-26T14:45:30.054Z,3.69
2023-02-26T14:47:59.013Z,3.61
2023-02-26T14:50:30.686Z,3.68
2023-02-26T14:53:24.427Z,3.67
2023-02-26T14:56:07.419Z,3.60
2023-02-26T14:58:49.196Z,3.65
2023-02-26T15:01:31.615Z,3.97
2023-02-26T15:04:15.702Z,3.44
2023-02-26T15:07:00.912Z,4.04
2023-02-26T15:09:38.385Z,3.98
2023-02-26T15:12:17.416Z,3.70
2023-02-26T15:15:00.806Z,3.55
2023-02-26T15:17:40.314Z,3.71
2023-02-26T15:20:19.145Z,4.27
2023-02-26T15:23:04.060Z,4.04
2023-02-26T15:25:35.951Z,3.93
2023-02-26T15:28:05.276Z,4.11
2023-02-26T15:30:35.402Z,3.99
2023-02-26T15:33:06.210Z,3.92
2023-02-26T15:35:34.957Z,4.06
2023-02-26T15:38:04.195Z,3.96
2023-02-26T15:40:34.612Z,3.69
2023-02-26T15:43:03.902Z,3.81
2023-02-26T15:45:37.223Z,3.99
2023-02-26T15:48:07.231Z,3.53
2023-02-26T15:50:38.444Z,3.68
2023-02-26T15:53:08.499Z,4.08
2023-02-26T15:55:39.230Z,3.83
2023-02-26T15:58:08.559Z,3.64
2023-02-26T16:00:39.327Z,3.68
2023-02-26T16:03:06.785Z,4.23
2023-02-26T16:05:34.230Z,3.36
2023-02-26T16:08:01.858Z,3.34
2023-02-26T16:10:35.178Z,3.46
2023-02-26T16:13:03.251Z,4.02
2023-02-26T16:15:33.612Z,3.64
2023-02-26T16:18:06.018Z,3.25
2023-02-26T16:20:38.932Z,3.33
2023-02-26T16:23:10.941Z,3.77
2023-02-26T16:25:41.969Z,3.43
2023-02-26T16:28:15.889Z,3.36
2023-02-26T16:30:45.627Z,3.99
2023-02-26T16:33:17.516Z,3.83
2023-02-26T16:35:48.354Z,3.36
2023-02-26T16:38:21.168Z,2.97
2023-02-26T16:40:58.271Z,3.48
2023-02-26T16:43:53.043Z,3.18
2023-02-26T16:46:34.116Z,3.36
2023-02-26T16:49:05.786Z,3.64
2023-02-26T16:51:38.128Z,3.70
2023-02-26T16:54:10.128Z,3.00
2023-02-26T16:56:41.991Z,3.45
2023-02-26T16:59:16.124Z,3.21
2023-02-26T17:01:51.245Z,3.29
2023-02-26T17:04:22.495Z,2.99
2023-02-26T17:06:50.221Z,3.26
2023-02-26T17:09:34.590Z,3.23
2023-02-26T17:12:13.302Z,3.16
2023-02-26T17:14:42.932Z,2.95
2023-02-26T17:17:11.062Z,2.99
2023-02-26T17:19:39.862Z,3.07
2023-02-26T17:22:14.285Z,3.08
2023-02-26T17:24:45.192Z,3.27
2023-02-26T17:27:17.424Z,2.90
2023-02-26T17:29:47.773Z,3.07
2023-02-26T17:32:19.442Z,3.26
2023-02-26T17:34:48.411Z,3.37
2023-02-26T17:37:16.514Z,2.99
2023-02-26T17:39:44.847Z,3.35
2023-02-26T17:42:13.475Z,3.04
2023-02-26T17:44:41.294Z,3.51
2023-02-26T17:47:13.814Z,2.78
2023-02-26T17:49:41.238Z,2.67
2023-02-26T17:52:09.977Z,3.18
2023-02-26T17:54:37.447Z,2.71
2023-02-26T17:57:05.311Z,2.82
2023-02-26T17:59:33.112Z,2.92
2023-02-26T18:02:01.259Z,2.87
2023-02-26T18:04:29.579Z,2.75
2023-02-26T18:06:57.159Z,3.03
2023-02-26T18:09:25.963Z,3.18
2023-02-26T18:11:53.365Z,2.70
2023-02-26T18:14:20.815Z,2.54
2023-02-26T18:16:48.306Z,2.49
2023-02-26T18:19:16.050Z,2.44
2023-02-26T18:21:43.537Z,2.39
2023-02-26T18:24:11.271Z,2.34
2023-02-26T18:26:40.112Z,2.45
2023-02-26T18:29:07.534Z,2.41
2023-02-26T18:31:35.832Z,2.14
2023-02-26T18:34:04.169Z,2.19
2023-02-26T18:36:37.449Z,2.20
2023-02-26T18:39:07.422Z,2.37
2023-02-26T18:41:35.705Z,2.59
2023-02-26T18:44:04.617Z,3.01
2023-02-26T18:46:34.823Z,2.16
2023-02-26T18:49:02.382Z,2.43
2023-02-26T18:51:30.247Z,3.26
2023-02-26T18:53:57.638Z,2.72
2023-02-26T18:56:25.252Z,2.43
2023-02-26T18:58:52.709Z,2.63
2023-02-26T19:01:21.660Z,2.67
2023-02-26T19:03:49.135Z,2.72
2023-02-26T19:06:16.687Z,2.63
2023-02-26T19:08:44.116Z,2.61
2023-02-26T19:11:11.745Z,2.77
2023-02-26T19:13:39.262Z,2.95
2023-02-26T19:16:07.199Z,2.80
2023-02-26T19:18:35.959Z,3.13
2023-02-26T19:21:04.730Z,2.78
2023-02-26T19:23:32.222Z,3.50
2023-02-26T19:25:59.659Z,3.40
2023-02-26T19:28:27.083Z,2.62
2023-02-26T19:30:55.097Z,3.24
2023-02-26T19:33:23.913Z,2.93
2023-02-26T19:35:53.101Z,3.34
2023-02-26T19:38:20.556Z,3.17
2023-02-26T19:40:48.448Z,3.22
2023-02-26T19:43:15.869Z,2.79
2023-02-26T19:45:43.336Z,2.76
2023-02-26T19:48:10.807Z,3.03
2023-02-26T19:50:38.246Z,2.78
2023-02-26T19:53:07.229Z,2.64
2023-02-26T19:55:34.736Z,2.09
2023-02-26T19:58:02.220Z,2.50
2023-02-26T20:00:29.751Z,2.40
2023-02-26T20:02:57.217Z,2.76
2023-02-26T20:05:24.796Z,2.65
2023-02-26T20:07:52.346Z,2.58
2023-02-26T20:10:23.441Z,2.33
2023-02-26T20:12:50.919Z,2.59
2023-02-26T20:15:18.382Z,2.63
2023-02-26T20:17:45.796Z,2.88
2023-02-26T20:20:13.850Z,3.07
2023-02-26T20:22:41.372Z,3.16
2023-02-26T20:25:09.969Z,2.96
2023-02-26T20:27:38.965Z,2.64
2023-02-26T20:30:07.781Z,2.50
2023-02-26T20:32:35.367Z,2.50
2023-02-26T20:35:02.937Z,2.43
2023-02-26T20:37:30.351Z,2.63
2023-02-26T20:39:57.802Z,2.65
2023-02-26T20:42:25.436Z,2.68
2023-02-26T20:44:54.409Z,2.85
2023-02-26T20:47:21.821Z,3.03
2023-02-26T20:49:49.452Z,2.54
2023-02-26T20:52:16.998Z,2.74
2023-02-26T20:54:44.775Z,2.21
2023-02-26T20:57:13.073Z,2.56
2023-02-26T20:59:40.487Z,2.68
2023-02-26T21:02:12.397Z,2.78
2023-02-26T21:04:39.869Z,2.90
2023-02-26T21:07:21.604Z,2.80
2023-02-26T21:09:49.590Z,3.11
2023-02-26T21:12:17.431Z,3.31
2023-02-26T21:14:45.542Z,3.11
2023-02-26T21:17:14.332Z,2.66
2023-02-26T21:19:41.830Z,2.73
2023-02-26T21:22:09.385Z,2.83
2023-02-26T21:24:36.873Z,2.96
2023-02-26T21:27:04.543Z,3.11
2023-02-26T21:29:32.112Z,3.07
2023-02-26T21:32:03.404Z,2.29
2023-02-26T21:34:34.833Z,2.76
2023-02-26T21:37:03.341Z,2.98
2023-02-26T21:39:32.308Z,3.03
2023-02-26T21:42:00.578Z,3.12
2023-02-26T21:44:28.630Z,2.98
2023-02-26T21:46:57.322Z,3.24
2023-02-26T21:49:24.990Z,3.48
2023-02-26T21:51:54.234Z,3.58
2023-02-26T21:54:21.998Z,3.41
2023-02-26T21:56:49.559Z,3.56
2023-02-26T21:59:16.998Z,3.35
2023-02-26T22:01:45.490Z,3.01
2023-02-26T22:04:13.275Z,3.02
2023-02-26T22:06:40.711Z,3.42
2023-02-26T22:09:09.583Z,3.49
2023-02-26T22:11:37.380Z,3.47
2023-02-26T22:14:04.931Z,3.37
2023-02-26T22:16:32.554Z,3.62
2023-02-26T22:19:00.049Z,3.37
2023-02-26T22:21:27.897Z,3.45
2023-02-26T22:23:55.681Z,3.37
2023-02-26T22:26:24.500Z,3.38
2023-02-26T22:28:52.183Z,3.42
2023-02-26T22:31:19.853Z,3.38
2023-02-26T22:33:49.357Z,3.42
2023-02-26T22:36:17.082Z,3.30
2023-02-26T22:38:44.561Z,3.45
2023-02-26T22:41:12.020Z,3.27
2023-02-26T22:43:40.815Z,3.08
2023-02-26T22:46:08.814Z,3.15
2023-02-26T22:48:36.331Z,2.68
2023-02-26T22:51:03.857Z,2.81
2023-02-26T22:53:31.926Z,3.11
2023-02-26T22:55:59.874Z,3.05
2023-02-26T22:58:27.510Z,3.06
2023-02-26T23:01:01.587Z,2.83
2023-02-26T23:03:29.855Z,2.67
2023-02-26T23:05:58.533Z,2.92
2023-02-26T23:08:26.401Z,2.99
2023-02-26T23:10:55.148Z,2.76
2023-02-26T23:13:22.767Z,2.39
2023-02-26T23:15:50.234Z,2.68
2023-02-26T23:18:19.061Z,2.92
2023-02-26T23:20:48.223Z,2.75
2023-02-26T23:23:16.124Z,2.74
2023-02-26T23:25:43.948Z,2.76
2023-02-26T23:28:11.830Z,2.96
2023-02-26T23:30:39.456Z,2.71
2023-02-26T23:33:08.091Z,2.48
2023-02-26T23:35:37.146Z,2.46
2023-02-26T23:38:06.005Z,2.49
2023-02-26T23:40:34.399Z,2.29
2023-02-26T23:43:01.921Z,2.15
2023-02-26T23:45:29.386Z,2.06
2023-02-26T23:47:56.852Z,2.23
2023-02-26T23:50:24.365Z,1.88
2023-02-26T23:52:53.262Z,2.07
2023-02-26T23:55:24.418Z,2.35
2023-02-26T23:57:51.866Z,2.24
